createdAt,value
2023-02-27T00:00:08.260Z,23.1
2023-02-27T00:05:46.542Z,22.9
2023-02-27T00:11:23.373Z,23.3
2023-02-27T00:16:46.707Z,23.5
2023-02-27T00:22:42.524Z,23.3
2023-02-27T00:28:35.208Z,23.1
2023-02-27T00:34:28.150Z,22.9
2023-02-27T00:40:20.240Z,23.3
2023-02-27T00:45:57.042Z,23.6
2023-02-27T00:51:33.893Z,23.4
2023-02-27T00:57:11.346Z,23.2
2023-02-27T01:03:05.699Z,23.1
2023-02-27T01:08:58.752Z,23.2
2023-02-27T01:14:35.776Z,23.6
2023-02-27T01:20:13.103Z,23.4
2023-02-27T01:26:06.167Z,23.2
2023-02-27T01:32:00.065Z,23.1
2023-02-27T01:37:52.481Z,23.1
2023-02-27T01:43:45.313Z,23.8
2023-02-27T01:49:38.955Z,23.5
2023-02-27T01:55:30.731Z,23.3
2023-02-27T02:01:24.520Z,23.2
2023-02-27T02:07:17.824Z,23.1
2023-02-27T02:13:09.961Z,23.7
2023-02-27T02:19:03.323Z,23.5
2023-02-27T02:24:56.207Z,23.3
2023-02-27T02:30:49.400Z,23.2
2023-02-27T02:36:43.584Z,23.2
2023-02-27T02:42:35.909Z,23.7
2023-02-27T02:48:13.764Z,23.6
2023-02-27T02:54:10.130Z,23.3
2023-02-27T03:00:02.924Z,23.2
2023-02-27T03:05:39.593Z,23.2
2023-02-27T03:11:32.886Z,23.7
2023-02-27T03:17:28.643Z,23.6
2023-02-27T03:23:21.598Z,23.4
2023-02-27T03:29:16.212Z,23.3
2023-02-27T03:35:10.575Z,23.1
2023-02-27T03:40:46.916Z,23.4
2023-02-27T03:46:39.523Z,23.7
2023-02-27T03:52:17.482Z,23.5
2023-02-27T03:58:09.280Z,23.3
2023-02-27T04:04:02.260Z,23.3
2023-02-27T04:09:54.644Z,23.2
2023-02-27T04:15:47.997Z,23.8
2023-02-27T04:21:42.721Z,23.6
2023-02-27T04:27:34.723Z,23.3
2023-02-27T04:33:27.596Z,23.1
2023-02-27T04:39:19.842Z,23
2023-02-27T04:45:14.256Z,22.8
2023-02-27T04:50:53.090Z,22.7
2023-02-27T04:56:47.922Z,22.9
2023-02-27T05:02:41.510Z,23.5
2023-02-27T05:08:33.585Z,23.6
2023-02-27T05:14:26.977Z,23.3
2023-02-27T05:20:20.705Z,23.1
2023-02-27T05:25:43.487Z,22.9
2023-02-27T05:31:36.505Z,22.8
2023-02-27T05:37:29.432Z,22.6
2023-02-27T05:43:22.322Z,22.6
2023-02-27T05:49:15.201Z,22.6
2023-02-27T05:55:06.585Z,22.8
2023-02-27T06:00:58.688Z,23.4
2023-02-27T06:06:51.918Z,23.3
2023-02-27T06:12:30.406Z,23
2023-02-27T06:18:23.977Z,22.8
2023-02-27T06:24:16.385Z,22.6
2023-02-27T06:30:09.866Z,22.6
2023-02-27T06:36:04.440Z,22.4
2023-02-27T06:41:56.857Z,22.4
2023-02-27T06:47:51.080Z,22.8
2023-02-27T06:53:43.534Z,23.4
2023-02-27T06:59:35.448Z,23.2
2023-02-27T07:05:28.798Z,23
2023-02-27T07:12:40.532Z,22.8
2023-02-27T07:18:36.641Z,22.6
2023-02-27T07:24:29.225Z,22.4
2023-02-27T07:30:22.644Z,22.4
2023-02-27T07:36:15.144Z,22.4
2023-02-27T07:42:19.610Z,22.8
2023-02-27T07:47:57.238Z,23.4
2023-02-27T07:53:50.521Z,23.1
2023-02-27T07:59:44.100Z,23
2023-02-27T08:05:37.372Z,22.9
2023-02-27T08:11:30.565Z,22.9
2023-02-27T08:17:53.723Z,23.4
2023-02-27T08:23:31.137Z,23.2
2023-02-27T08:29:24.757Z,23.1
2023-02-27T08:35:31.833Z,23
2023-02-27T08:41:27.887Z,22.9
2023-02-27T08:47:21.234Z,23.6
2023-02-27T08:52:59.392Z,23.4
2023-02-27T08:58:53.046Z,23.2
2023-02-27T09:04:47.576Z,23.1
2023-02-27T09:10:41.579Z,23
2023-02-27T09:16:19.676Z,23.5
2023-02-27T09:22:13.418Z,23.4
2023-02-27T09:28:24.865Z,23.3
2023-02-27T09:34:19.405Z,23.1
2023-02-27T09:40:12.362Z,23
2023-02-27T09:46:19.035Z,23.5
2023-02-27T09:52:12.797Z,23.6
2023-02-27T09:58:06.520Z,23.3
2023-02-27T10:03:59.916Z,23.2
2023-02-27T10:09:52.596Z,23.2
2023-02-27T10:15:44.484Z,23.8
2023-02-27T10:21:51.807Z,23.6
2023-02-27T10:27:41.798Z,23.3
2023-02-27T10:33:32.842Z,23.2
2023-02-27T10:39:34.177Z,23.3
2023-02-27T10:45:27.407Z,23.8
2023-02-27T10:51:23.042Z,23.5
2023-02-27T10:57:00.976Z,23.4
2023-02-27T11:02:38.304Z,23.3
2023-02-27T11:08:16.386Z,23.4
2023-02-27T11:14:10.877Z,23.8
2023-02-27T11:19:47.465Z,23.5
2023-02-27T11:25:40.744Z,23.4
2023-02-27T11:31:32.805Z,23.3
2023-02-27T11:37:26.215Z,23.5
2023-02-27T11:42:50.224Z,23.3
2023-02-27T11:50:09.990Z,23.1
2023-02-27T11:56:01.606Z,22.8
2023-02-27T12:01:54.555Z,22.6
2023-02-27T12:07:32.916Z,22.5
2023-02-27T12:13:40.453Z,22.9
2023-02-27T12:19:19.286Z,23
2023-02-27T12:24:57.242Z,22.8
2023-02-27T12:30:50.528Z,22.8
2023-02-27T12:36:45.162Z,22.7
2023-02-27T12:42:37.852Z,22.6
2023-02-27T12:48:15.822Z,22.6
2023-02-27T12:54:08.930Z,22.6
2023-02-27T13:00:03.351Z,23
2023-02-27T13:05:41.392Z,22.9
2023-02-27T13:11:34.178Z,22.7
2023-02-27T13:17:27.412Z,22.6
2023-02-27T13:23:05.904Z,22.6
2023-02-27T13:28:58.950Z,22.9
2023-02-27T13:35:11.362Z,22.8
2023-02-27T13:41:04.546Z,22.6
2023-02-27T13:47:09.867Z,22.6
2023-02-27T13:52:56.127Z,22.5
2023-02-27T13:59:02.292Z,22.5
2023-02-27T14:04:38.592Z,22.6
2023-02-27T14:10:14.590Z,22.9
2023-02-27T14:16:04.475Z,22.8
2023-02-27T14:22:10.828Z,22.6
2023-02-27T14:28:19.773Z,22.6
2023-02-27T14:34:29.155Z,22.6
2023-02-27T14:40:29.593Z,22.5
2023-02-27T14:46:09.482Z,22.4
2023-02-27T14:52:03.570Z,22.7
2023-02-27T14:57:57.068Z,22.6
2023-02-27T15:04:00.649Z,22.5
2023-02-27T15:09:53.643Z,22.4
2023-02-27T15:15:57.029Z,22.4
2023-02-27T15:21:56.442Z,22.4
2023-02-27T15:27:51.590Z,22.4
2023-02-27T15:33:45.364Z,22.4
2023-02-27T15:39:25.208Z,22.5
2023-02-27T15:45:18.208Z,22.4
2023-02-27T15:51:10.696Z,22.3
2023-02-27T15:56:47.990Z,22.3
2023-02-27T16:02:52.648Z,22.3
2023-02-27T16:08:33.473Z,22.3
2023-02-27T16:14:26.598Z,22.1
2023-02-27T16:20:20.567Z,22.6
2023-02-27T16:26:13.129Z,22.4
2023-02-27T16:31:51.427Z,22.3
2023-02-27T16:38:03.145Z,22.3
2023-02-27T16:43:41.789Z,22.3
2023-02-27T16:49:50.698Z,22.2
2023-02-27T16:55:43.177Z,22.1
2023-02-27T17:01:43.055Z,22.2
2023-02-27T17:07:27.047Z,22.4
2023-02-27T17:13:03.902Z,22.3
2023-02-27T17:18:59.036Z,22.1
2023-02-27T17:24:52.756Z,22.1
2023-02-27T17:30:44.273Z,22.1
2023-02-27T17:36:39.584Z,22
2023-02-27T17:42:16.711Z,22.4
2023-02-27T17:48:10.610Z,22.3
2023-02-27T17:54:03.397Z,22.3
2023-02-27T17:59:55.949Z,22.2
2023-02-27T18:05:48.485Z,22.1
2023-02-27T18:11:41.233Z,22.2
2023-02-27T18:17:35.954Z,22
2023-02-27T18:23:29.044Z,22.3
2023-02-27T18:29:30.740Z,22.3
2023-02-27T18:35:23.641Z,22.2
2023-02-27T18:41:16.925Z,22.2
2023-02-27T18:47:10.593Z,22.1
2023-02-27T18:53:05.307Z,22.1
2023-02-27T18:58:57.601Z,22.1
2023-02-27T19:04:54.180Z,22
2023-02-27T19:10:46.740Z,22.5
2023-02-27T19:16:38.760Z,22.3
2023-02-27T19:22:31.673Z,22.2
2023-02-27T19:28:24.914Z,22.2
2023-02-27T19:34:02.310Z,22.1
2023-02-27T19:39:41.067Z,22.1
2023-02-27T19:45:33.766Z,22.1
2023-02-27T19:51:27.505Z,22.5
2023-02-27T19:57:20.833Z,22.4
2023-02-27T20:03:14.657Z,22.3
2023-02-27T20:09:06.991Z,22.1
2023-02-27T20:14:59.685Z,22
2023-02-27T20:20:53.196Z,21.9
2023-02-27T20:26:46.222Z,22.1
2023-02-27T20:32:39.806Z,22.5
2023-02-27T20:38:33.264Z,22.3
2023-02-27T20:44:25.138Z,22.1
2023-02-27T20:50:18.471Z,22.1
2023-02-27T20:56:11.403Z,21.9
2023-02-27T21:02:04.539Z,21.9
2023-02-27T21:08:08.634Z,21.8
2023-02-27T21:14:01.524Z,21.8
2023-02-27T21:19:53.683Z,21.8
2023-02-27T21:25:46.725Z,22
2023-02-27T21:31:39.711Z,22.4
2023-02-27T21:37:34.544Z,22.3
2023-02-27T21:43:27.065Z,22.2
2023-02-27T21:49:19.290Z,22.1
2023-02-27T21:55:29.397Z,22.8
2023-02-27T22:01:22.126Z,22.9
2023-02-27T22:07:14.703Z,22.8
2023-02-27T22:13:08.714Z,22.5
2023-02-27T22:19:01.447Z,22.9
2023-02-27T22:24:53.787Z,23.1
2023-02-27T22:30:48.152Z,22.9
2023-02-27T22:36:42.039Z,22.8
2023-02-27T22:42:34.468Z,22.8
2023-02-27T22:48:26.705Z,23.3
2023-02-27T22:54:04.727Z,23.1
2023-02-27T22:59:59.260Z,23
2023-02-27T23:05:52.017Z,22.8
2023-02-27T23:11:45.844Z,23.3
2023-02-27T23:17:49.311Z,23.4
2023-02-27T23:23:44.545Z,23.2
2023-02-27T23:29:52.870Z,23
2023-02-27T23:35:38.893Z,23.1
2023-02-27T23:41:31.737Z,23.6
2023-02-27T23:47:23.984Z,23.4
2023-02-27T23:53:16.195Z,23.2
2023-02-27T23:58:53.569Z,23
